sensor_id;sensor_type;location;lat;lon;timestamp;temperature;humidity
12481;DHT22;6305;48.398;11.762;2022-08-02T00:00:12;18.80;99.90
12481;DHT22;6305;48.398;11.762;2022-08-02T00:02:40;18.70;99.90
12481;DHT22;6305;48.398;11.762;2022-08-02T00:05:07;18.70;99.90
12481;DHT22;6305;48.398;11.762;2022-08-02T00:07:35;18.70;99.90
12481;DHT22;6305;48.398;11.762;2022-08-02T00:10:03;18.60;99.90
12481;DHT22;6305;48.398;11.762;2022-08-02T00:12:30;18.60;99.90
12481;DHT22;6305;48.398;11.762;2022-08-02T00:14:57;18.50;99.90
12481;DHT22;6305;48.398;11.762;2022-08-02T00:17:24;18.50;99.90
12481;DHT22;6305;48.398;11.762;2022-08-02T00:19:50;18.40;99.90
12481;DHT22;6305;48.398;11.762;2022-08-02T00:22:17;18.30;99.90
12481;DHT22;6305;48.398;11.762;2022-08-02T00:24:45;18.20;99.90
12481;DHT22;6305;48.398;11.762;2022-08-02T00:27:12;18.10;99.90
12481;DHT22;6305;48.398;11.762;2022-08-02T00:29:39;18.10;99.90
12481;DHT22;6305;48.398;11.762;2022-08-02T00:32:06;18.10;99.90
12481;DHT22;6305;48.398;11.762;2022-08-02T00:34:32;18.00;99.90
12481;DHT22;6305;48.398;11.762;2022-08-02T00:36:59;18.00;99.90
12481;DHT22;6305;48.398;11.762;2022-08-02T00:39:26;17.90;99.90
12481;DHT22;6305;48.398;11.762;2022-08-02T00:41:54;17.90;99.90
12481;DHT22;6305;48.398;11.762;2022-08-02T00:44:21;17.80;99.90
12481;DHT22;6305;48.398;11.762;2022-08-02T00:46:48;17.80;99.90
12481;DHT22;6305;48.398;11.762;2022-08-02T00:49:14;17.80;99.90
12481;DHT22;6305;48.398;11.762;2022-08-02T00:51:41;17.70;99.90
12481;DHT22;6305;48.398;11.762;2022-08-02T00:54:09;17.70;99.90
12481;DHT22;6305;48.398;11.762;2022-08-02T00:56:36;17.70;99.90
12481;DHT22;6305;48.398;11.762;2022-08-02T00:59:04;17.60;99.90
12481;DHT22;6305;48.398;11.762;2022-08-02T01:01:31;17.60;99.90
12481;DHT22;6305;48.398;11.762;2022-08-02T01:04:08;17.60;99.90
12481;DHT22;6305;48.398;11.762;2022-08-02T01:06:36;17.50;99.90
12481;DHT22;6305;48.398;11.762;2022-08-02T01:09:04;17.50;99.90
12481;DHT22;6305;48.398;11.762;2022-08-02T01:11:31;17.50;99.90
12481;DHT22;6305;48.398;11.762;2022-08-02T01:14:02;17.50;99.90
12481;DHT22;6305;48.398;11.762;2022-08-02T01:16:35;17.40;99.90
12481;DHT22;6305;48.398;11.762;2022-08-02T01:19:17;17.40;99.90
12481;DHT22;6305;48.398;11.762;2022-08-02T01:21:53;17.40;99.90
12481;DHT22;6305;48.398;11.762;2022-08-02T01:24:39;17.30;99.90
12481;DHT22;6305;48.398;11.762;2022-08-02T01:27:25;17.30;99.90
12481;DHT22;6305;48.398;11.762;2022-08-02T01:29:58;17.20;99.90
12481;DHT22;6305;48.398;11.762;2022-08-02T01:32:30;17.20;99.90
12481;DHT22;6305;48.398;11.762;2022-08-02T01:35:01;17.10;99.90
12481;DHT22;6305;48.398;11.762;2022-08-02T01:37:33;17.10;99.90
12481;DHT22;6305;48.398;11.762;2022-08-02T01:40:05;17.00;99.90
12481;DHT22;6305;48.398;11.762;2022-08-02T01:42:34;17.00;99.90
12481;DHT22;6305;48.398;11.762;2022-08-02T01:45:05;17.00;99.90
12481;DHT22;6305;48.398;11.762;2022-08-02T01:47:34;17.00;99.90
12481;DHT22;6305;48.398;11.762;2022-08-02T01:50:04;17.00;99.90
12481;DHT22;6305;48.398;11.762;2022-08-02T01:52:34;17.00;99.90
12481;DHT22;6305;48.398;11.762;2022-08-02T01:55:05;17.00;99.90
12481;DHT22;6305;48.398;11.762;2022-08-02T01:57:36;17.00;99.90
12481;DHT22;6305;48.398;11.762;2022-08-02T02:00:07;17.00;99.90
12481;DHT22;6305;48.398;11.762;2022-08-02T02:02:37;17.00;99.90
12481;DHT22;6305;48.398;11.762;2022-08-02T02:05:10;17.00;99.90
12481;DHT22;6305;48.398;11.762;2022-08-02T02:07:38;16.90;99.90
12481;DHT22;6305;48.398;11.762;2022-08-02T02:10:07;16.90;99.90
12481;DHT22;6305;48.398;11.762;2022-08-02T02:12:36;16.90;99.90
12481;DHT22;6305;48.398;11.762;2022-08-02T02:15:08;16.80;99.90
12481;DHT22;6305;48.398;11.762;2022-08-02T02:17:35;16.80;99.90
12481;DHT22;6305;48.398;11.762;2022-08-02T02:20:05;16.80;99.90
12481;DHT22;6305;48.398;11.762;2022-08-02T02:22:32;16.80;99.90
12481;DHT22;6305;48.398;11.762;2022-08-02T02:24:59;16.80;99.90
12481;DHT22;6305;48.398;11.762;2022-08-02T02:27:26;16.80;99.90
12481;DHT22;6305;48.398;11.762;2022-08-02T02:29:54;16.70;99.90
12481;DHT22;6305;48.398;11.762;2022-08-02T02:32:24;16.70;99.90
12481;DHT22;6305;48.398;11.762;2022-08-02T02:34:53;16.60;99.90
12481;DHT22;6305;48.398;11.762;2022-08-02T02:37:22;16.60;99.90
12481;DHT22;6305;48.398;11.762;2022-08-02T02:39:51;16.60;99.90
12481;DHT22;6305;48.398;11.762;2022-08-02T02:42:22;16.60;99.90
12481;DHT22;6305;48.398;11.762;2022-08-02T02:44:51;16.60;99.90
12481;DHT22;6305;48.398;11.762;2022-08-02T02:47:19;16.60;99.90
12481;DHT22;6305;48.398;11.762;2022-08-02T02:49:50;16.60;99.90
12481;DHT22;6305;48.398;11.762;2022-08-02T02:52:17;16.60;99.90
12481;DHT22;6305;48.398;11.762;2022-08-02T02:54:46;16.60;99.90
12481;DHT22;6305;48.398;11.762;2022-08-02T02:57:15;16.60;99.90
12481;DHT22;6305;48.398;11.762;2022-08-02T02:59:42;16.60;99.90
12481;DHT22;6305;48.398;11.762;2022-08-02T03:02:10;16.60;99.90
12481;DHT22;6305;48.398;11.762;2022-08-02T03:04:39;16.70;99.90
12481;DHT22;6305;48.398;11.762;2022-08-02T03:07:08;16.70;99.90
12481;DHT22;6305;48.398;11.762;2022-08-02T03:09:35;16.70;99.90
12481;DHT22;6305;48.398;11.762;2022-08-02T03:12:03;16.80;99.90
12481;DHT22;6305;48.398;11.762;2022-08-02T03:14:30;16.80;99.90
12481;DHT22;6305;48.398;11.762;2022-08-02T03:16:57;16.80;99.90
12481;DHT22;6305;48.398;11.762;2022-08-02T03:19:24;16.80;99.90
12481;DHT22;6305;48.398;11.762;2022-08-02T03:21:51;16.90;99.90
12481;DHT22;6305;48.398;11.762;2022-08-02T03:24:19;16.90;99.90
12481;DHT22;6305;48.398;11.762;2022-08-02T03:26:46;17.00;99.90
12481;DHT22;6305;48.398;11.762;2022-08-02T03:29:13;17.00;99.90
12481;DHT22;6305;48.398;11.762;2022-08-02T03:31:40;17.00;99.90
12481;DHT22;6305;48.398;11.762;2022-08-02T03:34:09;17.10;99.90
12481;DHT22;6305;48.398;11.762;2022-08-02T03:36:36;17.10;99.90
12481;DHT22;6305;48.398;11.762;2022-08-02T03:39:06;17.10;99.90
12481;DHT22;6305;48.398;11.762;2022-08-02T03:41:35;17.10;99.90
12481;DHT22;6305;48.398;11.762;2022-08-02T03:44:03;17.10;99.90
12481;DHT22;6305;48.398;11.762;2022-08-02T03:46:32;17.10;99.90
12481;DHT22;6305;48.398;11.762;2022-08-02T03:49:04;17.10;99.90
12481;DHT22;6305;48.398;11.762;2022-08-02T03:51:31;17.10;99.90
12481;DHT22;6305;48.398;11.762;2022-08-02T03:53:59;17.10;99.90
12481;DHT22;6305;48.398;11.762;2022-08-02T03:56:27;17.10;99.90
12481;DHT22;6305;48.398;11.762;2022-08-02T03:59:09;17.10;99.90
12481;DHT22;6305;48.398;11.762;2022-08-02T04:01:36;17.10;99.90
12481;DHT22;6305;48.398;11.762;2022-08-02T04:04:03;17.10;99.90
12481;DHT22;6305;48.398;11.762;2022-08-02T04:06:30;17.10;99.90
12481;DHT22;6305;48.398;11.762;2022-08-02T04:08:57;17.10;99.90
12481;DHT22;6305;48.398;11.762;2022-08-02T04:11:24;17.10;99.90
12481;DHT22;6305;48.398;11.762;2022-08-02T04:13:58;17.10;99.90
12481;DHT22;6305;48.398;11.762;2022-08-02T04:16:33;17.10;99.90
12481;DHT22;6305;48.398;11.762;2022-08-02T04:19:04;17.10;99.90
12481;DHT22;6305;48.398;11.762;2022-08-02T04:21:36;17.20;99.90
12481;DHT22;6305;48.398;11.762;2022-08-02T04:24:04;17.20;99.90
12481;DHT22;6305;48.398;11.762;2022-08-02T04:26:34;17.20;99.90
12481;DHT22;6305;48.398;11.762;2022-08-02T04:29:02;17.30;99.90
12481;DHT22;6305;48.398;11.762;2022-08-02T04:31:31;17.30;99.90
12481;DHT22;6305;48.398;11.762;2022-08-02T04:33:58;17.30;99.90
12481;DHT22;6305;48.398;11.762;2022-08-02T04:36:25;17.40;99.90
12481;DHT22;6305;48.398;11.762;2022-08-02T04:38:52;17.40;99.90
12481;DHT22;6305;48.398;11.762;2022-08-02T04:41:19;17.50;99.90
12481;DHT22;6305;48.398;11.762;2022-08-02T04:43:46;17.50;99.90
12481;DHT22;6305;48.398;11.762;2022-08-02T04:46:12;17.50;99.90
12481;DHT22;6305;48.398;11.762;2022-08-02T04:48:41;17.60;99.90
12481;DHT22;6305;48.398;11.762;2022-08-02T04:51:07;17.70;99.90
12481;DHT22;6305;48.398;11.762;2022-08-02T04:53:34;17.70;99.90
12481;DHT22;6305;48.398;11.762;2022-08-02T04:56:01;17.80;99.90
12481;DHT22;6305;48.398;11.762;2022-08-02T04:58:27;17.80;99.90
12481;DHT22;6305;48.398;11.762;2022-08-02T05:00:54;17.90;99.90
12481;DHT22;6305;48.398;11.762;2022-08-02T05:03:21;17.90;99.90
12481;DHT22;6305;48.398;11.762;2022-08-02T05:05:49;18.00;99.90
12481;DHT22;6305;48.398;11.762;2022-08-02T05:08:15;18.10;99.90
12481;DHT22;6305;48.398;11.762;2022-08-02T05:10:42;18.20;99.90
12481;DHT22;6305;48.398;11.762;2022-08-02T05:13:09;18.30;99.90
12481;DHT22;6305;48.398;11.762;2022-08-02T05:15:35;18.40;99.90
12481;DHT22;6305;48.398;11.762;2022-08-02T05:18:02;18.60;99.90
12481;DHT22;6305;48.398;11.762;2022-08-02T05:20:29;18.70;99.90
12481;DHT22;6305;48.398;11.762;2022-08-02T05:22:57;18.80;99.90
12481;DHT22;6305;48.398;11.762;2022-08-02T05:25:24;18.90;99.90
12481;DHT22;6305;48.398;11.762;2022-08-02T05:27:50;19.00;99.90
12481;DHT22;6305;48.398;11.762;2022-08-02T05:30:17;19.10;99.90
12481;DHT22;6305;48.398;11.762;2022-08-02T05:32:45;19.30;99.90
12481;DHT22;6305;48.398;11.762;2022-08-02T05:35:12;19.40;99.90
12481;DHT22;6305;48.398;11.762;2022-08-02T05:37:39;19.40;99.90
12481;DHT22;6305;48.398;11.762;2022-08-02T05:40:08;19.40;99.90
12481;DHT22;6305;48.398;11.762;2022-08-02T05:42:35;19.50;99.90
12481;DHT22;6305;48.398;11.762;2022-08-02T05:45:03;19.50;99.90
12481;DHT22;6305;48.398;11.762;2022-08-02T05:47:30;19.60;99.90
12481;DHT22;6305;48.398;11.762;2022-08-02T05:49:56;19.60;99.90
12481;DHT22;6305;48.398;11.762;2022-08-02T05:52:24;19.70;99.90
12481;DHT22;6305;48.398;11.762;2022-08-02T05:54:56;19.70;99.90
12481;DHT22;6305;48.398;11.762;2022-08-02T05:57:36;19.60;99.90
12481;DHT22;6305;48.398;11.762;2022-08-02T06:00:06;19.50;99.90
12481;DHT22;6305;48.398;11.762;2022-08-02T06:02:46;19.40;99.90
12481;DHT22;6305;48.398;11.762;2022-08-02T06:05:16;19.40;99.90
12481;DHT22;6305;48.398;11.762;2022-08-02T06:07:45;19.60;99.90
12481;DHT22;6305;48.398;11.762;2022-08-02T06:10:14;19.80;99.90
12481;DHT22;6305;48.398;11.762;2022-08-02T06:12:47;20.00;99.90
12481;DHT22;6305;48.398;11.762;2022-08-02T06:15:16;20.60;99.90
12481;DHT22;6305;48.398;11.762;2022-08-02T06:17:43;21.20;99.90
12481;DHT22;6305;48.398;11.762;2022-08-02T06:20:11;21.80;99.90
12481;DHT22;6305;48.398;11.762;2022-08-02T06:22:40;22.50;99.90
12481;DHT22;6305;48.398;11.762;2022-08-02T06:25:08;22.90;99.90
12481;DHT22;6305;48.398;11.762;2022-08-02T06:27:35;23.30;99.90
12481;DHT22;6305;48.398;11.762;2022-08-02T06:30:06;23.90;99.90
12481;DHT22;6305;48.398;11.762;2022-08-02T06:32:33;24.60;99.90
12481;DHT22;6305;48.398;11.762;2022-08-02T06:35:00;25.10;99.90
12481;DHT22;6305;48.398;11.762;2022-08-02T06:37:33;25.60;99.90
12481;DHT22;6305;48.398;11.762;2022-08-02T06:40:07;26.60;99.90
12481;DHT22;6305;48.398;11.762;2022-08-02T06:42:43;27.50;98.10
12481;DHT22;6305;48.398;11.762;2022-08-02T06:45:12;28.40;93.40
12481;DHT22;6305;48.398;11.762;2022-08-02T06:47:39;29.00;91.70
12481;DHT22;6305;48.398;11.762;2022-08-02T06:50:07;30.10;88.10
12481;DHT22;6305;48.398;11.762;2022-08-02T06:52:34;31.20;81.80
12481;DHT22;6305;48.398;11.762;2022-08-02T06:55:03;31.90;73.10
12481;DHT22;6305;48.398;11.762;2022-08-02T06:57:31;32.00;71.50
12481;DHT22;6305;48.398;11.762;2022-08-02T06:59:59;32.50;69.00
12481;DHT22;6305;48.398;11.762;2022-08-02T07:02:30;33.00;65.70
12481;DHT22;6305;48.398;11.762;2022-08-02T07:04:57;33.70;62.80
12481;DHT22;6305;48.398;11.762;2022-08-02T07:07:25;34.20;59.60
12481;DHT22;6305;48.398;11.762;2022-08-02T07:09:52;34.90;56.30
12481;DHT22;6305;48.398;11.762;2022-08-02T07:12:19;35.80;54.00
12481;DHT22;6305;48.398;11.762;2022-08-02T07:14:46;35.80;52.70
12481;DHT22;6305;48.398;11.762;2022-08-02T07:17:13;35.40;51.00
12481;DHT22;6305;48.398;11.762;2022-08-02T07:19:41;34.80;52.40
12481;DHT22;6305;48.398;11.762;2022-08-02T07:22:08;34.90;53.00
12481;DHT22;6305;48.398;11.762;2022-08-02T07:24:34;35.70;52.40
12481;DHT22;6305;48.398;11.762;2022-08-02T07:27:01;36.20;49.40
12481;DHT22;6305;48.398;11.762;2022-08-02T07:29:28;35.30;50.30
12481;DHT22;6305;48.398;11.762;2022-08-02T07:31:55;35.30;52.00
12481;DHT22;6305;48.398;11.762;2022-08-02T07:34:21;36.10;51.50
12481;DHT22;6305;48.398;11.762;2022-08-02T07:36:49;36.90;49.10
12481;DHT22;6305;48.398;11.762;2022-08-02T07:39:16;38.10;47.30
12481;DHT22;6305;48.398;11.762;2022-08-02T07:41:43;38.30;45.10
12481;DHT22;6305;48.398;11.762;2022-08-02T07:44:10;36.20;45.70
12481;DHT22;6305;48.398;11.762;2022-08-02T07:46:37;34.00;49.50
12481;DHT22;6305;48.398;11.762;2022-08-02T07:49:04;32.40;53.60
12481;DHT22;6305;48.398;11.762;2022-08-02T07:51:30;31.90;56.20
12481;DHT22;6305;48.398;11.762;2022-08-02T07:53:59;31.50;56.60
12481;DHT22;6305;48.398;11.762;2022-08-02T07:56:25;31.50;59.30
12481;DHT22;6305;48.398;11.762;2022-08-02T07:58:52;33.50;57.40
12481;DHT22;6305;48.398;11.762;2022-08-02T08:01:19;34.90;54.10
12481;DHT22;6305;48.398;11.762;2022-08-02T08:03:46;36.80;50.60
12481;DHT22;6305;48.398;11.762;2022-08-02T08:06:13;37.90;46.30
12481;DHT22;6305;48.398;11.762;2022-08-02T08:08:40;38.20;45.10
12481;DHT22;6305;48.398;11.762;2022-08-02T08:11:09;38.20;45.10
12481;DHT22;6305;48.398;11.762;2022-08-02T08:13:36;38.70;44.40
12481;DHT22;6305;48.398;11.762;2022-08-02T08:16:03;39.00;43.70
12481;DHT22;6305;48.398;11.762;2022-08-02T08:18:30;39.10;43.10
12481;DHT22;6305;48.398;11.762;2022-08-02T08:20:57;39.70;42.70
12481;DHT22;6305;48.398;11.762;2022-08-02T08:23:25;40.80;41.40
12481;DHT22;6305;48.398;11.762;2022-08-02T08:25:51;40.70;39.70
12481;DHT22;6305;48.398;11.762;2022-08-02T08:28:19;40.50;39.90
12481;DHT22;6305;48.398;11.762;2022-08-02T08:30:47;40.50;39.70
12481;DHT22;6305;48.398;11.762;2022-08-02T08:33:13;40.40;39.80
12481;DHT22;6305;48.398;11.762;2022-08-02T08:35:40;40.50;40.10
12481;DHT22;6305;48.398;11.762;2022-08-02T08:38:07;41.10;39.50
12481;DHT22;6305;48.398;11.762;2022-08-02T08:40:34;41.10;38.50
12481;DHT22;6305;48.398;11.762;2022-08-02T08:43:02;39.80;38.60
12481;DHT22;6305;48.398;11.762;2022-08-02T08:45:30;38.10;40.10
12481;DHT22;6305;48.398;11.762;2022-08-02T08:48:00;37.90;41.70
12481;DHT22;6305;48.398;11.762;2022-08-02T08:50:29;38.30;42.20
12481;DHT22;6305;48.398;11.762;2022-08-02T08:53:01;39.00;41.30
12481;DHT22;6305;48.398;11.762;2022-08-02T08:55:29;38.70;40.60
12481;DHT22;6305;48.398;11.762;2022-08-02T08:57:57;37.80;42.10
12481;DHT22;6305;48.398;11.762;2022-08-02T09:00:25;37.40;42.60
12481;DHT22;6305;48.398;11.762;2022-08-02T09:02:54;37.50;42.80
12481;DHT22;6305;48.398;11.762;2022-08-02T09:05:20;37.60;42.40
12481;DHT22;6305;48.398;11.762;2022-08-02T09:07:48;37.90;42.50
12481;DHT22;6305;48.398;11.762;2022-08-02T09:10:38;39.10;42.00
12481;DHT22;6305;48.398;11.762;2022-08-02T09:13:08;39.80;39.70
12481;DHT22;6305;48.398;11.762;2022-08-02T09:15:36;39.50;39.90
12481;DHT22;6305;48.398;11.762;2022-08-02T09:18:04;40.40;38.70
12481;DHT22;6305;48.398;11.762;2022-08-02T09:20:31;40.40;37.60
12481;DHT22;6305;48.398;11.762;2022-08-02T09:23:05;39.60;37.20
12481;DHT22;6305;48.398;11.762;2022-08-02T09:25:32;38.10;39.20
12481;DHT22;6305;48.398;11.762;2022-08-02T09:27:59;38.20;40.70
12481;DHT22;6305;48.398;11.762;2022-08-02T09:30:26;39.20;40.00
12481;DHT22;6305;48.398;11.762;2022-08-02T09:32:53;40.20;39.10
12481;DHT22;6305;48.398;11.762;2022-08-02T09:35:32;40.00;38.00
12481;DHT22;6305;48.398;11.762;2022-08-02T09:38:07;38.20;38.60
12481;DHT22;6305;48.398;11.762;2022-08-02T09:40:35;36.10;41.20
12481;DHT22;6305;48.398;11.762;2022-08-02T09:43:02;35.50;43.50
12481;DHT22;6305;48.398;11.762;2022-08-02T09:45:30;35.30;44.60
12481;DHT22;6305;48.398;11.762;2022-08-02T09:47:58;35.30;45.00
12481;DHT22;6305;48.398;11.762;2022-08-02T09:50:25;35.40;44.60
12481;DHT22;6305;48.398;11.762;2022-08-02T09:52:55;34.90;45.40
12481;DHT22;6305;48.398;11.762;2022-08-02T09:55:23;33.90;46.50
12481;DHT22;6305;48.398;11.762;2022-08-02T09:57:50;33.20;47.50
12481;DHT22;6305;48.398;11.762;2022-08-02T10:00:17;32.20;48.70
12481;DHT22;6305;48.398;11.762;2022-08-02T10:03:06;31.50;49.90
12481;DHT22;6305;48.398;11.762;2022-08-02T10:05:45;31.20;50.70
12481;DHT22;6305;48.398;11.762;2022-08-02T10:08:14;31.20;51.50
12481;DHT22;6305;48.398;11.762;2022-08-02T10:10:41;31.20;51.80
12481;DHT22;6305;48.398;11.762;2022-08-02T10:13:08;31.30;51.00
12481;DHT22;6305;48.398;11.762;2022-08-02T10:15:35;31.20;50.80
12481;DHT22;6305;48.398;11.762;2022-08-02T10:18:02;31.30;50.90
12481;DHT22;6305;48.398;11.762;2022-08-02T10:20:32;31.80;51.10
12481;DHT22;6305;48.398;11.762;2022-08-02T10:23:02;31.90;50.00
12481;DHT22;6305;48.398;11.762;2022-08-02T10:25:30;32.00;49.80
12481;DHT22;6305;48.398;11.762;2022-08-02T10:27:57;32.20;49.50
12481;DHT22;6305;48.398;11.762;2022-08-02T10:30:25;32.90;48.70
12481;DHT22;6305;48.398;11.762;2022-08-02T10:32:53;33.90;47.40
12481;DHT22;6305;48.398;11.762;2022-08-02T10:35:24;34.80;45.40
12481;DHT22;6305;48.398;11.762;2022-08-02T10:37:53;35.40;43.90
12481;DHT22;6305;48.398;11.762;2022-08-02T10:40:20;35.80;43.00
12481;DHT22;6305;48.398;11.762;2022-08-02T10:42:53;36.20;42.50
12481;DHT22;6305;48.398;11.762;2022-08-02T10:45:21;37.20;41.40
12481;DHT22;6305;48.398;11.762;2022-08-02T10:48:02;37.60;40.50
12481;DHT22;6305;48.398;11.762;2022-08-02T10:50:52;37.90;40.00
12481;DHT22;6305;48.398;11.762;2022-08-02T10:53:29;38.30;39.60
12481;DHT22;6305;48.398;11.762;2022-08-02T10:55:57;38.60;38.90
12481;DHT22;6305;48.398;11.762;2022-08-02T10:58:27;38.90;38.10
12481;DHT22;6305;48.398;11.762;2022-08-02T11:00:56;39.50;37.20
12481;DHT22;6305;48.398;11.762;2022-08-02T11:03:34;39.30;36.60
12481;DHT22;6305;48.398;11.762;2022-08-02T11:06:02;38.90;36.80
12481;DHT22;6305;48.398;11.762;2022-08-02T11:08:29;39.40;36.80
12481;DHT22;6305;48.398;11.762;2022-08-02T11:11:00;39.30;36.90
12481;DHT22;6305;48.398;11.762;2022-08-02T11:13:28;39.70;37.20
12481;DHT22;6305;48.398;11.762;2022-08-02T11:15:58;40.70;36.00
12481;DHT22;6305;48.398;11.762;2022-08-02T11:19:01;41.10;34.70
12481;DHT22;6305;48.398;11.762;2022-08-02T11:21:29;40.50;34.60
12481;DHT22;6305;48.398;11.762;2022-08-02T11:24:23;39.10;36.90
12481;DHT22;6305;48.398;11.762;2022-08-02T11:26:51;38.40;37.80
12481;DHT22;6305;48.398;11.762;2022-08-02T11:29:20;38.30;37.70
12481;DHT22;6305;48.398;11.762;2022-08-02T11:31:47;38.80;37.60
12481;DHT22;6305;48.398;11.762;2022-08-02T11:34:15;38.40;36.90
12481;DHT22;6305;48.398;11.762;2022-08-02T11:36:47;38.70;37.10
12481;DHT22;6305;48.398;11.762;2022-08-02T11:39:16;40.10;37.20
12481;DHT22;6305;48.398;11.762;2022-08-02T11:41:48;40.40;34.10
12481;DHT22;6305;48.398;11.762;2022-08-02T11:44:16;40.00;34.50
12481;DHT22;6305;48.398;11.762;2022-08-02T11:46:51;40.70;34.50
12481;DHT22;6305;48.398;11.762;2022-08-02T11:49:18;41.20;33.50
12481;DHT22;6305;48.398;11.762;2022-08-02T11:51:57;40.80;33.00
12481;DHT22;6305;48.398;11.762;2022-08-02T11:54:28;40.50;33.10
12481;DHT22;6305;48.398;11.762;2022-08-02T11:57:08;40.70;33.60
12481;DHT22;6305;48.398;11.762;2022-08-02T11:59:36;41.10;33.20
12481;DHT22;6305;48.398;11.762;2022-08-02T12:02:05;41.50;32.00
12481;DHT22;6305;48.398;11.762;2022-08-02T12:04:32;41.50;31.90
12481;DHT22;6305;48.398;11.762;2022-08-02T12:07:00;41.60;32.10
12481;DHT22;6305;48.398;11.762;2022-08-02T12:09:28;41.50;32.00
12481;DHT22;6305;48.398;11.762;2022-08-02T12:11:56;41.20;32.00
12481;DHT22;6305;48.398;11.762;2022-08-02T12:14:24;41.30;32.30
12481;DHT22;6305;48.398;11.762;2022-08-02T12:16:52;41.90;31.80
12481;DHT22;6305;48.398;11.762;2022-08-02T12:19:39;42.20;31.40
12481;DHT22;6305;48.398;11.762;2022-08-02T12:22:09;41.70;30.00
12481;DHT22;6305;48.398;11.762;2022-08-02T12:24:37;40.40;31.50
12481;DHT22;6305;48.398;11.762;2022-08-02T12:27:04;39.60;32.40
12481;DHT22;6305;48.398;11.762;2022-08-02T12:29:32;39.50;32.70
12481;DHT22;6305;48.398;11.762;2022-08-02T12:32:00;39.20;33.40
12481;DHT22;6305;48.398;11.762;2022-08-02T12:34:28;39.40;33.30
12481;DHT22;6305;48.398;11.762;2022-08-02T12:37:02;39.60;32.80
12481;DHT22;6305;48.398;11.762;2022-08-02T12:39:34;39.40;33.50
12481;DHT22;6305;48.398;11.762;2022-08-02T12:42:01;39.10;33.50
12481;DHT22;6305;48.398;11.762;2022-08-02T12:44:28;38.90;33.70
12481;DHT22;6305;48.398;11.762;2022-08-02T12:46:59;39.00;33.70
12481;DHT22;6305;48.398;11.762;2022-08-02T12:49:26;38.70;33.50
12481;DHT22;6305;48.398;11.762;2022-08-02T12:51:53;38.80;33.50
12481;DHT22;6305;48.398;11.762;2022-08-02T12:54:22;39.60;33.70
12481;DHT22;6305;48.398;11.762;2022-08-02T12:56:50;40.60;33.10
12481;DHT22;6305;48.398;11.762;2022-08-02T12:59:33;40.80;31.50
12481;DHT22;6305;48.398;11.762;2022-08-02T13:02:04;40.50;31.50
12481;DHT22;6305;48.398;11.762;2022-08-02T13:04:31;40.20;31.60
12481;DHT22;6305;48.398;11.762;2022-08-02T13:06:58;40.90;32.00
12481;DHT22;6305;48.398;11.762;2022-08-02T13:09:26;41.90;31.50
12481;DHT22;6305;48.398;11.762;2022-08-02T13:11:53;41.90;30.00
12481;DHT22;6305;48.398;11.762;2022-08-02T13:14:19;41.50;30.30
12481;DHT22;6305;48.398;11.762;2022-08-02T13:16:47;41.30;30.30
12481;DHT22;6305;48.398;11.762;2022-08-02T13:19:13;40.50;30.20
12481;DHT22;6305;48.398;11.762;2022-08-02T13:21:41;39.70;30.60
12481;DHT22;6305;48.398;11.762;2022-08-02T13:24:08;39.20;31.00
12481;DHT22;6305;48.398;11.762;2022-08-02T13:26:40;39.40;32.30
12481;DHT22;6305;48.398;11.762;2022-08-02T13:29:07;39.80;31.50
12481;DHT22;6305;48.398;11.762;2022-08-02T13:31:34;39.70;31.50
12481;DHT22;6305;48.398;11.762;2022-08-02T13:34:02;39.60;31.20
12481;DHT22;6305;48.398;11.762;2022-08-02T13:36:29;39.20;31.70
12481;DHT22;6305;48.398;11.762;2022-08-02T13:38:57;39.20;31.50
12481;DHT22;6305;48.398;11.762;2022-08-02T13:41:23;39.10;31.70
12481;DHT22;6305;48.398;11.762;2022-08-02T13:43:51;38.80;31.70
12481;DHT22;6305;48.398;11.762;2022-08-02T13:46:18;38.70;32.60
12481;DHT22;6305;48.398;11.762;2022-08-02T13:48:45;38.70;31.60
12481;DHT22;6305;48.398;11.762;2022-08-02T13:51:12;38.40;31.70
12481;DHT22;6305;48.398;11.762;2022-08-02T13:53:39;38.50;32.80
12481;DHT22;6305;48.398;11.762;2022-08-02T13:56:06;38.60;32.50
12481;DHT22;6305;48.398;11.762;2022-08-02T13:58:33;39.00;32.90
12481;DHT22;6305;48.398;11.762;2022-08-02T14:01:01;39.10;31.00
12481;DHT22;6305;48.398;11.762;2022-08-02T14:03:28;39.10;31.20
12481;DHT22;6305;48.398;11.762;2022-08-02T14:05:55;38.80;29.80
12481;DHT22;6305;48.398;11.762;2022-08-02T14:08:22;38.40;30.00
12481;DHT22;6305;48.398;11.762;2022-08-02T14:10:50;38.10;30.40
12481;DHT22;6305;48.398;11.762;2022-08-02T14:13:17;37.80;31.10
12481;DHT22;6305;48.398;11.762;2022-08-02T14:15:45;37.80;31.40
12481;DHT22;6305;48.398;11.762;2022-08-02T14:18:13;37.70;31.40
12481;DHT22;6305;48.398;11.762;2022-08-02T14:20:41;37.70;31.20
12481;DHT22;6305;48.398;11.762;2022-08-02T14:23:08;37.70;31.10
12481;DHT22;6305;48.398;11.762;2022-08-02T14:25:35;37.40;31.50
12481;DHT22;6305;48.398;11.762;2022-08-02T14:28:02;37.30;32.00
12481;DHT22;6305;48.398;11.762;2022-08-02T14:30:29;37.60;33.10
12481;DHT22;6305;48.398;11.762;2022-08-02T14:32:56;38.10;32.80
12481;DHT22;6305;48.398;11.762;2022-08-02T14:35:24;38.30;32.00
12481;DHT22;6305;48.398;11.762;2022-08-02T14:37:50;38.40;30.50
12481;DHT22;6305;48.398;11.762;2022-08-02T14:40:17;38.40;29.70
12481;DHT22;6305;48.398;11.762;2022-08-02T14:42:44;38.60;30.10
12481;DHT22;6305;48.398;11.762;2022-08-02T14:45:11;39.00;30.90
12481;DHT22;6305;48.398;11.762;2022-08-02T14:47:37;39.10;30.00
12481;DHT22;6305;48.398;11.762;2022-08-02T14:50:05;38.70;30.40
12481;DHT22;6305;48.398;11.762;2022-08-02T14:52:33;38.30;30.40
12481;DHT22;6305;48.398;11.762;2022-08-02T14:55:00;38.00;30.60
12481;DHT22;6305;48.398;11.762;2022-08-02T14:57:28;37.60;31.60
12481;DHT22;6305;48.398;11.762;2022-08-02T14:59:55;37.50;32.90
12481;DHT22;6305;48.398;11.762;2022-08-02T15:02:24;37.40;32.00
12481;DHT22;6305;48.398;11.762;2022-08-02T15:04:51;37.40;32.10
12481;DHT22;6305;48.398;11.762;2022-08-02T15:07:18;37.40;32.50
12481;DHT22;6305;48.398;11.762;2022-08-02T15:09:46;37.30;32.20
12481;DHT22;6305;48.398;11.762;2022-08-02T15:12:13;37.10;33.00
12481;DHT22;6305;48.398;11.762;2022-08-02T15:14:41;37.00;32.70
12481;DHT22;6305;48.398;11.762;2022-08-02T15:17:08;36.90;33.20
12481;DHT22;6305;48.398;11.762;2022-08-02T15:19:35;36.70;33.40
12481;DHT22;6305;48.398;11.762;2022-08-02T15:22:02;36.60;33.00
12481;DHT22;6305;48.398;11.762;2022-08-02T15:24:29;36.40;33.10
12481;DHT22;6305;48.398;11.762;2022-08-02T15:26:57;36.60;33.70
12481;DHT22;6305;48.398;11.762;2022-08-02T15:29:23;37.20;33.50
12481;DHT22;6305;48.398;11.762;2022-08-02T15:31:50;37.30;32.00
12481;DHT22;6305;48.398;11.762;2022-08-02T15:34:17;37.40;32.20
12481;DHT22;6305;48.398;11.762;2022-08-02T15:36:43;37.20;31.90
12481;DHT22;6305;48.398;11.762;2022-08-02T15:39:10;36.80;31.70